createdAt,value
2022-09-22T00:01:04.980Z,98367.63
2022-09-22T00:03:33.017Z,98373.00
2022-09-22T00:06:11.895Z,98361.50
2022-09-22T00:08:41.115Z,98363.13
2022-09-22T00:11:13.786Z,98340.56
2022-09-22T00:13:41.496Z,98358.97
2022-09-22T00:16:10.835Z,98373.81
2022-09-22T00:18:38.140Z,98356.72
2022-09-22T00:21:12.367Z,98357.16
2022-09-22T00:23:39.843Z,98354.19
2022-09-22T00:26:09.069Z,98351.47
2022-09-22T00:28:35.625Z,98363.78
2022-09-22T00:31:15.170Z,98342.41
2022-09-22T00:33:42.606Z,98353.09
2022-09-22T00:36:10.009Z,98357.78
2022-09-22T00:38:38.970Z,98325.41
2022-09-22T00:41:10.958Z,98359.06
2022-09-22T00:43:38.920Z,98344.97
2022-09-22T00:46:08.456Z,98360.66
2022-09-22T00:48:39.631Z,98371.41
2022-09-22T00:51:09.462Z,98365.81
2022-09-22T00:53:36.264Z,98340.66
2022-09-22T00:56:09.340Z,98368.91
2022-09-22T00:58:44.041Z,98367.22
2022-09-22T01:01:10.973Z,98355.53
2022-09-22T01:03:42.654Z,98370.25
2022-09-22T01:06:12.736Z,98345.16
2022-09-22T01:08:40.217Z,98338.66
2022-09-22T01:11:08.049Z,98364.56
2022-09-22T01:14:06.565Z,98362.47
2022-09-22T01:16:53.669Z,98362.19
2022-09-22T01:19:57.708Z,98370.88
2022-09-22T01:22:50.707Z,98369.41
2022-09-22T01:26:00.677Z,98372.06
2022-09-22T01:28:48.346Z,98361.72
2022-09-22T01:31:23.750Z,98365.09
2022-09-22T01:34:06.130Z,98348.56
2022-09-22T01:36:46.975Z,98367.75
2022-09-22T01:39:29.710Z,98357.09
2022-09-22T01:41:58.288Z,98367.16
2022-09-22T01:44:47.616Z,98372.31
2022-09-22T01:47:24.637Z,98340.81
2022-09-22T01:49:55.792Z,98338.88
2022-09-22T01:52:27.356Z,98360.72
2022-09-22T01:55:03.402Z,98361.91
2022-09-22T01:57:58.018Z,98368.91
2022-09-22T02:00:25.001Z,98343.16
2022-09-22T02:03:08.221Z,98353.56
2022-09-22T02:05:44.961Z,98353.47
2022-09-22T02:08:21.838Z,98325.63
2022-09-22T02:10:49.066Z,98352.28
2022-09-22T02:13:15.659Z,98347.28
2022-09-22T02:16:01.682Z,98343.91
2022-09-22T02:18:43.742Z,98337.78
2022-09-22T02:21:10.801Z,98342.91
2022-09-22T02:23:37.433Z,98345.03
2022-09-22T02:26:06.766Z,98330.91
2022-09-22T02:28:38.705Z,98336.56
2022-09-22T02:31:24.847Z,98326.44
2022-09-22T02:33:52.219Z,98304.78
2022-09-22T02:36:39.060Z,98333.19
2022-09-22T02:39:21.721Z,98332.34
2022-09-22T02:42:10.297Z,98336.06
2022-09-22T02:44:49.385Z,98338.03
2022-09-22T02:47:32.680Z,98331.34
2022-09-22T02:50:01.952Z,98330.84
2022-09-22T02:52:28.439Z,98305.63
2022-09-22T02:54:55.020Z,98334.91
2022-09-22T02:57:21.982Z,98304.28
2022-09-22T02:59:48.505Z,98328.41
2022-09-22T03:02:15.281Z,98331.25
2022-09-22T03:04:41.932Z,98331.25
2022-09-22T03:07:08.537Z,98304.53
2022-09-22T03:09:35.187Z,98305.00
2022-09-22T03:12:01.945Z,98300.16
2022-09-22T03:14:28.598Z,98312.50
2022-09-22T03:16:55.215Z,98324.00
2022-09-22T03:19:21.749Z,98300.44
2022-09-22T03:21:48.237Z,98303.91
2022-09-22T03:24:14.728Z,98306.03
2022-09-22T03:26:41.291Z,98305.75
2022-09-22T03:29:07.940Z,98325.97
2022-09-22T03:31:34.485Z,98325.28
2022-09-22T03:34:01.104Z,98327.38
2022-09-22T03:36:27.623Z,98335.84
2022-09-22T03:38:54.273Z,98307.56
2022-09-22T03:41:20.909Z,98308.38
2022-09-22T03:43:47.418Z,98302.69
2022-09-22T03:46:14.426Z,98318.88
2022-09-22T03:48:44.938Z,98315.44
2022-09-22T03:51:12.155Z,98300.84
2022-09-22T03:53:39.000Z,98312.19
2022-09-22T03:56:10.286Z,98302.59
2022-09-22T03:58:37.812Z,98295.44
2022-09-22T04:01:06.034Z,98286.72
2022-09-22T04:03:33.082Z,98297.41
2022-09-22T04:06:00.431Z,98309.75
2022-09-22T04:08:27.041Z,98290.47
2022-09-22T04:10:54.209Z,98318.78
2022-09-22T04:13:20.840Z,98317.94
2022-09-22T04:15:47.367Z,98310.88
2022-09-22T04:18:14.512Z,98282.03
2022-09-22T04:20:43.613Z,98310.03
2022-09-22T04:23:14.583Z,98295.47
2022-09-22T04:25:41.181Z,98284.28
2022-09-22T04:28:08.078Z,98327.25
2022-09-22T04:30:35.093Z,98327.91
2022-09-22T04:33:01.945Z,98294.22
2022-09-22T04:35:29.057Z,98311.97
2022-09-22T04:37:56.575Z,98292.56
2022-09-22T04:40:24.254Z,98316.28
2022-09-22T04:42:52.998Z,98312.28
2022-09-22T04:45:19.547Z,98314.47
2022-09-22T04:47:51.555Z,98319.75
2022-09-22T04:50:20.674Z,98323.78
2022-09-22T04:52:48.565Z,98315.19
2022-09-22T04:55:15.630Z,98285.63
2022-09-22T04:57:48.992Z,98283.69
2022-09-22T05:00:16.533Z,98314.47
2022-09-22T05:02:43.859Z,98325.31
2022-09-22T05:05:19.504Z,98322.78
2022-09-22T05:07:48.421Z,98314.06
2022-09-22T05:10:17.928Z,98316.81
2022-09-22T05:12:45.106Z,98288.66
2022-09-22T05:15:18.400Z,98273.56
2022-09-22T05:17:47.002Z,98321.41
2022-09-22T05:20:14.687Z,98327.78
2022-09-22T05:22:41.935Z,98325.28
2022-09-22T05:25:17.506Z,98328.19
2022-09-22T05:27:46.759Z,98307.78
2022-09-22T05:30:13.774Z,98329.28
2022-09-22T05:32:45.270Z,98323.47
2022-09-22T05:35:14.222Z,98328.72
2022-09-22T05:37:44.841Z,98311.25
2022-09-22T05:40:12.676Z,98315.56
2022-09-22T05:42:47.854Z,98317.25
2022-09-22T05:45:16.289Z,98325.53
2022-09-22T05:47:43.233Z,98298.09
2022-09-22T05:50:11.876Z,98313.63
2022-09-22T05:52:39.385Z,98300.16
2022-09-22T05:55:07.039Z,98332.03
2022-09-22T05:57:34.314Z,98309.00
2022-09-22T06:00:00.999Z,98328.03
2022-09-22T06:02:27.642Z,98307.09
2022-09-22T06:04:54.307Z,98328.91
2022-09-22T06:07:21.746Z,98334.03
2022-09-22T06:09:48.961Z,98330.28
2022-09-22T06:12:18.979Z,98325.13
2022-09-22T06:14:45.513Z,98329.13
2022-09-22T06:17:12.466Z,98335.81
2022-09-22T06:19:39.703Z,98335.66
2022-09-22T06:22:07.842Z,98342.19
2022-09-22T06:24:34.422Z,98342.91
2022-09-22T06:27:00.919Z,98333.59
2022-09-22T06:29:28.440Z,98321.38
2022-09-22T06:31:55.022Z,98351.47
2022-09-22T06:34:23.167Z,98337.72
2022-09-22T06:36:50.146Z,98339.91
2022-09-22T06:39:16.748Z,98344.34
2022-09-22T06:41:44.768Z,98308.31
2022-09-22T06:44:13.078Z,98339.31
2022-09-22T06:46:39.645Z,98342.34
2022-09-22T06:49:06.164Z,98325.31
2022-09-22T06:51:35.266Z,98344.47
2022-09-22T06:54:05.334Z,98323.84
2022-09-22T06:56:42.955Z,98346.09
2022-09-22T06:59:13.591Z,98320.66
2022-09-22T07:01:42.007Z,98333.41
2022-09-22T07:04:09.350Z,98304.97
2022-09-22T07:06:37.341Z,98310.66
2022-09-22T07:09:05.475Z,98335.81
2022-09-22T07:11:34.275Z,98333.38
2022-09-22T07:14:04.138Z,98305.59
2022-09-22T07:16:30.952Z,98328.41
2022-09-22T07:19:00.867Z,98336.44
2022-09-22T07:21:35.541Z,98312.53
2022-09-22T07:24:02.906Z,98279.69
2022-09-22T07:26:32.732Z,98287.06
2022-09-22T07:29:06.249Z,98307.66
2022-09-22T07:31:34.713Z,98309.63
2022-09-22T07:34:01.635Z,98315.25
2022-09-22T07:36:30.529Z,98312.06
2022-09-22T07:39:03.135Z,98318.38
2022-09-22T07:41:31.701Z,98323.81
2022-09-22T07:44:22.786Z,98314.94
2022-09-22T07:46:49.671Z,98301.19
2022-09-22T07:49:19.517Z,98325.94
2022-09-22T07:51:46.373Z,98317.53
2022-09-22T07:54:13.233Z,98326.97
2022-09-22T07:56:42.614Z,98318.00
2022-09-22T07:59:11.877Z,98319.28
2022-09-22T08:01:44.323Z,98319.88
2022-09-22T08:04:15.144Z,98290.66
2022-09-22T08:06:44.806Z,98282.97
2022-09-22T08:09:12.654Z,98305.19
2022-09-22T08:11:40.014Z,98265.63
2022-09-22T08:14:11.048Z,98298.19
2022-09-22T08:16:41.086Z,98250.94
2022-09-22T08:19:12.476Z,98296.34
2022-09-22T08:21:48.076Z,98284.78
2022-09-22T08:24:21.242Z,98296.28
2022-09-22T08:26:50.629Z,98284.38
2022-09-22T08:29:17.296Z,98285.41
2022-09-22T08:31:46.970Z,98278.25
2022-09-22T08:34:16.340Z,98286.53
2022-09-22T08:36:46.643Z,98291.19
2022-09-22T08:39:14.025Z,98263.66
2022-09-22T08:42:08.417Z,98288.44
2022-09-22T08:45:07.164Z,98288.53
2022-09-22T08:48:07.428Z,98285.38
2022-09-22T08:51:14.395Z,98284.03
2022-09-22T08:53:47.816Z,98282.88
2022-09-22T08:56:55.164Z,98279.03
2022-09-22T08:59:23.645Z,98285.25
2022-09-22T09:02:20.830Z,98280.94
2022-09-22T09:05:18.479Z,98273.53
2022-09-22T09:08:00.280Z,98290.56
2022-09-22T09:10:45.336Z,98283.06
2022-09-22T09:13:45.982Z,98276.91
2022-09-22T09:16:27.835Z,98282.19
2022-09-22T09:19:04.189Z,98277.22
2022-09-22T09:21:37.870Z,98267.72
2022-09-22T09:27:00.943Z,98275.09
2022-09-22T09:29:34.132Z,98277.44
2022-09-22T09:32:04.096Z,98275.75
2022-09-22T09:34:30.704Z,98265.56
2022-09-22T09:37:12.530Z,98276.38
2022-09-22T09:39:41.853Z,98256.38
2022-09-22T09:42:34.880Z,98243.94
2022-09-22T09:45:03.234Z,98263.78
2022-09-22T09:47:50.297Z,98266.59
2022-09-22T09:50:16.917Z,98268.44
2022-09-22T09:52:44.875Z,98244.06
2022-09-22T09:55:27.281Z,98264.03
2022-09-22T09:58:36.733Z,98258.44
2022-09-22T10:01:04.420Z,98253.91
2022-09-22T10:03:34.922Z,98246.28
2022-09-22T10:06:10.292Z,98251.66
2022-09-22T10:08:49.331Z,98240.38
2022-09-22T10:11:31.334Z,98250.16
2022-09-22T10:13:58.618Z,98240.56
2022-09-22T10:16:28.764Z,98244.41
2022-09-22T10:18:58.344Z,98246.94
2022-09-22T10:21:26.721Z,98233.50
2022-09-22T10:23:58.394Z,98228.09
2022-09-22T10:26:26.728Z,98206.88
2022-09-22T10:29:18.959Z,98227.03
2022-09-22T10:32:05.343Z,98223.47
2022-09-22T10:34:51.793Z,98218.56
2022-09-22T10:37:25.446Z,98216.69
2022-09-22T10:39:54.413Z,98214.75
2022-09-22T10:42:43.497Z,98219.16
2022-09-22T10:45:14.073Z,98221.28
2022-09-22T10:48:11.742Z,98206.00
2022-09-22T10:50:44.052Z,98206.09
2022-09-22T10:53:20.772Z,98206.91
2022-09-22T10:56:04.125Z,98199.22
2022-09-22T10:58:49.099Z,98199.59
2022-09-22T11:01:33.688Z,98202.69
2022-09-22T11:04:12.330Z,98195.34
2022-09-22T11:07:02.574Z,98188.28
2022-09-22T11:10:00.224Z,98189.69
2022-09-22T11:12:35.747Z,98204.22
2022-09-22T11:15:11.308Z,98198.06
2022-09-22T11:17:46.790Z,98202.94
2022-09-22T11:20:25.184Z,98191.75
2022-09-22T11:23:16.964Z,98194.78
2022-09-22T11:25:50.639Z,98200.63
2022-09-22T11:28:39.596Z,98204.44
2022-09-22T11:31:06.484Z,98196.41
2022-09-22T11:33:41.832Z,98201.19
2022-09-22T11:36:42.212Z,98194.47
2022-09-22T11:39:47.055Z,98188.44
2022-09-22T11:42:25.833Z,98179.47
2022-09-22T11:45:14.283Z,98196.09
2022-09-22T11:47:49.765Z,98182.84
2022-09-22T11:50:25.218Z,98182.59
2022-09-22T11:53:10.617Z,98173.44
2022-09-22T11:56:09.193Z,98173.28
2022-09-22T11:58:41.216Z,98176.47
2022-09-22T12:01:22.018Z,98160.84
2022-09-22T12:04:00.656Z,98150.16
2022-09-22T12:06:31.895Z,98151.59
2022-09-22T12:09:04.490Z,98164.78
2022-09-22T12:11:35.860Z,98156.75
2022-09-22T12:14:03.705Z,98147.81
2022-09-22T12:16:41.934Z,98162.31
2022-09-22T12:19:25.347Z,98140.94
2022-09-22T12:22:19.482Z,98154.13
2022-09-22T12:24:47.161Z,98150.88
2022-09-22T12:27:27.780Z,98135.72
2022-09-22T12:29:57.967Z,98141.75
2022-09-22T12:32:33.030Z,98134.66
2022-09-22T12:35:00.617Z,98127.44
2022-09-22T12:37:34.773Z,98136.75
2022-09-22T12:40:23.489Z,98130.63
2022-09-22T12:42:53.251Z,98137.41
2022-09-22T12:45:40.898Z,98125.72
2022-09-22T12:48:14.000Z,98140.19
2022-09-22T12:50:43.551Z,98128.41
2022-09-22T12:53:21.795Z,98106.00
2022-09-22T12:55:55.693Z,98110.13
2022-09-22T12:58:22.493Z,98127.78
2022-09-22T13:00:57.239Z,98130.56
2022-09-22T13:03:26.998Z,98119.66
2022-09-22T13:06:01.043Z,98110.44
2022-09-22T13:08:30.388Z,98110.09
2022-09-22T13:11:03.951Z,98114.00
2022-09-22T13:13:39.377Z,98105.50
2022-09-22T13:16:14.990Z,98109.75
2022-09-22T13:18:51.020Z,98105.47
2022-09-22T13:21:18.938Z,98102.06
2022-09-22T13:23:51.652Z,98102.34
2022-09-22T13:26:36.511Z,98092.19
2022-09-22T13:29:17.921Z,98098.75
2022-09-22T13:31:52.973Z,98099.72
2022-09-22T13:34:31.191Z,98091.97
2022-09-22T13:37:19.655Z,98091.81
2022-09-22T13:39:49.960Z,98080.47
2022-09-22T13:42:32.681Z,98087.97
2022-09-22T13:45:27.493Z,98091.53
2022-09-22T13:48:17.104Z,98090.88
2022-09-22T13:50:56.156Z,98084.75
2022-09-22T13:53:23.129Z,98086.00
2022-09-22T13:55:51.901Z,98085.06
2022-09-22T13:58:28.017Z,98078.78
2022-09-22T14:01:15.570Z,98075.50
2022-09-22T14:03:43.170Z,98072.50
2022-09-22T14:06:14.109Z,98076.00
2022-09-22T14:08:42.691Z,98070.78
2022-09-22T14:11:18.321Z,98066.06
2022-09-22T14:13:56.675Z,98066.47
2022-09-22T14:16:29.026Z,98067.81
2022-09-22T14:19:04.654Z,98065.81
2022-09-22T14:21:40.223Z,98060.69
2022-09-22T14:24:07.142Z,98062.91
2022-09-22T14:26:38.880Z,98059.41
2022-09-22T14:29:15.489Z,98057.28
2022-09-22T14:31:46.635Z,98043.34
2022-09-22T14:34:23.229Z,98044.28
2022-09-22T14:36:52.034Z,98044.44
2022-09-22T14:39:31.289Z,98038.84
2022-09-22T14:42:06.219Z,98038.03
2022-09-22T14:44:44.010Z,98031.59
2022-09-22T14:47:26.114Z,98037.09
2022-09-22T14:50:07.977Z,98049.28
2022-09-22T14:52:39.474Z,98017.00
2022-09-22T14:56:47.952Z,98013.69
2022-09-22T14:59:36.645Z,98042.69
2022-09-22T15:02:32.763Z,98037.72
2022-09-22T15:05:13.275Z,98013.97
2022-09-22T15:07:53.352Z,98009.38
2022-09-22T15:11:05.038Z,98022.31
2022-09-22T15:13:39.745Z,98044.44
2022-09-22T15:16:37.404Z,98045.31
2022-09-22T15:19:05.116Z,98025.28
2022-09-22T15:21:37.550Z,98009.94
2022-09-22T15:24:26.792Z,98016.13
2022-09-22T15:26:57.037Z,98016.97
2022-09-22T15:32:16.980Z,98013.81
2022-09-22T15:34:44.862Z,98041.50
2022-09-22T15:37:23.979Z,98052.50
2022-09-22T15:39:51.533Z,98035.81
2022-09-22T15:42:22.269Z,98041.63
2022-09-22T15:44:52.338Z,98017.53
2022-09-22T15:47:19.636Z,98013.00
2022-09-22T15:49:55.310Z,98030.84
2022-09-22T15:52:32.824Z,98018.13
2022-09-22T15:55:17.740Z,98020.53
2022-09-22T15:57:47.763Z,98035.69
2022-09-22T16:00:19.525Z,98032.63
2022-09-22T16:02:49.992Z,98014.16
2022-09-22T16:05:21.793Z,98033.47
2022-09-22T16:07:51.871Z,98030.78
2022-09-22T16:10:27.299Z,98035.75
2022-09-22T16:12:56.196Z,98022.97
2022-09-22T16:15:23.202Z,98024.84
2022-09-22T16:17:49.828Z,98010.19
2022-09-22T16:20:17.353Z,98009.41
2022-09-22T16:22:45.549Z,98021.19
2022-09-22T16:25:12.971Z,98033.38
2022-09-22T16:27:43.833Z,98005.50
2022-09-22T16:30:13.501Z,98031.84
2022-09-22T16:32:43.553Z,97997.50
2022-09-22T16:35:13.360Z,98022.63
2022-09-22T16:37:43.040Z,98027.25
2022-09-22T16:40:13.092Z,97990.06
2022-09-22T16:42:42.670Z,98017.59
2022-09-22T16:45:11.867Z,98031.63
2022-09-22T16:47:38.396Z,98024.97
2022-09-22T16:50:05.384Z,98011.28
2022-09-22T16:52:32.284Z,98026.03
2022-09-22T16:55:02.412Z,98009.09
2022-09-22T16:57:28.959Z,98030.25
2022-09-22T16:59:56.990Z,98028.38
2022-09-22T17:02:24.073Z,98021.97
2022-09-22T17:04:50.644Z,98019.63
2022-09-22T17:07:17.587Z,98040.81
2022-09-22T17:09:44.109Z,98041.66
2022-09-22T17:12:10.985Z,98037.63
2022-09-22T17:14:37.544Z,98018.22
2022-09-22T17:17:07.431Z,98026.66
2022-09-22T17:19:33.996Z,98016.72
2022-09-22T17:22:00.622Z,98038.88
2022-09-22T17:24:27.699Z,98045.22
2022-09-22T17:26:56.684Z,98024.75
2022-09-22T17:29:32.655Z,98052.44
2022-09-22T17:32:04.595Z,98053.97
2022-09-22T17:34:33.212Z,98054.53
2022-09-22T17:37:01.005Z,98035.66
2022-09-22T17:39:28.962Z,98033.38
2022-09-22T17:41:56.014Z,98057.09
2022-09-22T17:44:23.624Z,98051.19
2022-09-22T17:47:14.282Z,98047.34
2022-09-22T17:49:59.636Z,98051.00
2022-09-22T17:52:29.211Z,98056.25
2022-09-22T17:55:12.687Z,98054.16
2022-09-22T17:57:45.128Z,98061.03
2022-09-22T18:00:19.507Z,98055.22
2022-09-22T18:02:46.763Z,98069.44
2022-09-22T18:05:16.342Z,98053.59
2022-09-22T18:07:47.174Z,98066.25
2022-09-22T18:10:17.015Z,98074.00
2022-09-22T18:12:46.759Z,98071.56
2022-09-22T18:15:17.792Z,98062.44
2022-09-22T18:17:44.546Z,98053.25
2022-09-22T18:20:20.762Z,98069.00
2022-09-22T18:22:47.931Z,98086.75
2022-09-22T18:25:19.505Z,98087.41
2022-09-22T18:27:48.549Z,98086.22
2022-09-22T18:30:16.972Z,98094.31
2022-09-22T18:32:47.508Z,98096.03
2022-09-22T18:35:14.311Z,98097.31
2022-09-22T18:37:41.236Z,98099.22
2022-09-22T18:40:09.487Z,98105.19
2022-09-22T18:42:36.736Z,98087.34
2022-09-22T18:48:33.351Z,98092.50
2022-09-22T18:51:06.668Z,98113.09
2022-09-22T18:53:33.237Z,98069.09
2022-09-22T18:56:16.914Z,98104.53
2022-09-22T18:58:46.732Z,98114.41
2022-09-22T19:01:18.495Z,98088.91
2022-09-22T19:03:48.768Z,98119.75
2022-09-22T19:06:16.154Z,98100.47
2022-09-22T19:08:46.335Z,98127.63
2022-09-22T19:11:17.656Z,98115.88
2022-09-22T19:13:48.197Z,98121.25
2022-09-22T19:16:18.094Z,98099.84
2022-09-22T19:18:50.150Z,98126.00
2022-09-22T19:21:16.867Z,98133.19
2022-09-22T19:23:45.341Z,98101.06
2022-09-22T19:26:15.049Z,98127.81
2022-09-22T19:28:41.755Z,98127.63
2022-09-22T19:31:08.341Z,98101.63
2022-09-22T19:33:35.010Z,98109.25
2022-09-22T19:36:01.903Z,98139.91
2022-09-22T19:38:28.420Z,98109.41
2022-09-22T19:40:56.310Z,98133.31
2022-09-22T19:43:24.515Z,98133.72
2022-09-22T19:45:52.274Z,98111.22
2022-09-22T19:48:19.536Z,98126.84
2022-09-22T19:50:48.613Z,98131.72
2022-09-22T19:53:15.222Z,98135.38
2022-09-22T19:55:41.967Z,98126.69
2022-09-22T19:58:08.477Z,98126.06
2022-09-22T20:00:36.247Z,98129.13
2022-09-22T20:03:21.121Z,98109.50
2022-09-22T20:05:48.794Z,98111.91
2022-09-22T20:08:21.531Z,98126.31
2022-09-22T20:11:01.741Z,98127.84
2022-09-22T20:13:56.289Z,98126.56
2022-09-22T20:16:22.837Z,98119.41
2022-09-22T20:18:49.348Z,98130.28
2022-09-22T20:21:16.101Z,98102.63
2022-09-22T20:23:49.911Z,98126.84
2022-09-22T20:26:16.425Z,98122.03
2022-09-22T20:28:45.117Z,98121.41
2022-09-22T20:31:12.445Z,98104.13
2022-09-22T20:33:40.794Z,98118.84
2022-09-22T20:36:11.208Z,98133.00
2022-09-22T20:38:38.423Z,98108.38
2022-09-22T20:41:05.045Z,98111.66
2022-09-22T20:43:31.595Z,98116.53
2022-09-22T20:46:03.668Z,98129.47
2022-09-22T20:48:31.413Z,98126.69
2022-09-22T20:50:59.071Z,98134.03
2022-09-22T20:53:26.165Z,98112.47
2022-09-22T20:56:10.321Z,98119.91
2022-09-22T20:58:42.895Z,98122.22
2022-09-22T21:01:12.223Z,98127.63
2022-09-22T21:03:39.067Z,98129.97
2022-09-22T21:06:08.008Z,98104.34
2022-09-22T21:08:57.293Z,98127.19
2022-09-22T21:11:24.676Z,98132.25
2022-09-22T21:13:53.212Z,98122.16
2022-09-22T21:16:19.895Z,98116.56
2022-09-22T21:18:51.808Z,98118.69
2022-09-22T21:21:20.556Z,98115.38
2022-09-22T21:23:50.418Z,98105.56
2022-09-22T21:26:20.774Z,98109.13
2022-09-22T21:28:51.895Z,98106.53
2022-09-22T21:31:23.024Z,98112.31
2022-09-22T21:33:49.794Z,98084.41
2022-09-22T21:36:19.659Z,98100.53
2022-09-22T21:38:50.334Z,98094.97
2022-09-22T21:41:21.990Z,98085.69
2022-09-22T21:43:51.489Z,98082.56
2022-09-22T21:46:23.355Z,98086.69
2022-09-22T21:48:50.005Z,98112.56
2022-09-22T21:51:20.202Z,98100.84
2022-09-22T21:53:52.215Z,98094.03
2022-09-22T21:56:25.239Z,98120.19
2022-09-22T21:58:54.084Z,98117.25
2022-09-22T22:01:26.205Z,98098.31
2022-09-22T22:03:54.997Z,98108.03
2022-09-22T22:06:34.229Z,98109.34
2022-09-22T22:09:19.814Z,98123.28
2022-09-22T22:11:55.498Z,98121.34
2022-09-22T22:14:23.926Z,98099.59
2022-09-22T22:16:53.801Z,98120.84
2022-09-22T22:19:25.931Z,98102.56
2022-09-22T22:21:53.890Z,98118.31
2022-09-22T22:24:27.269Z,98082.75
2022-09-22T22:26:57.137Z,98107.91
2022-09-22T22:29:26.703Z,98115.53
2022-09-22T22:31:53.529Z,98108.66
2022-09-22T22:34:27.569Z,98110.97
2022-09-22T22:36:55.236Z,98107.56
2022-09-22T22:39:22.029Z,98110.63
2022-09-22T22:41:55.272Z,98084.63
2022-09-22T22:44:24.664Z,98075.75
2022-09-22T22:46:54.017Z,98093.88
2022-09-22T22:49:22.412Z,98083.06
2022-09-22T22:51:52.135Z,98079.06
2022-09-22T22:54:18.637Z,98101.63
2022-09-22T22:56:50.203Z,98093.16
2022-09-22T22:59:18.149Z,98077.88
2022-09-22T23:01:44.757Z,98076.94
2022-09-22T23:04:12.143Z,98097.44
2022-09-22T23:06:41.759Z,98064.91
2022-09-22T23:09:11.794Z,98091.19
2022-09-22T23:11:39.978Z,98097.16
2022-09-22T23:14:08.565Z,98093.16
2022-09-22T23:16:38.235Z,98082.72
2022-09-22T23:19:08.462Z,98097.19
2022-09-22T23:21:36.208Z,98090.13
2022-09-22T23:24:03.953Z,98077.19
2022-09-22T23:26:32.044Z,98086.63
2022-09-22T23:28:59.002Z,98061.09
2022-09-22T23:31:26.128Z,98069.50
2022-09-22T23:33:57.584Z,98087.50
2022-09-22T23:36:27.919Z,98077.53
2022-09-22T23:39:04.184Z,98071.13
2022-09-22T23:41:35.769Z,98099.53
2022-09-22T23:44:03.657Z,98099.41
2022-09-22T23:46:30.682Z,98087.59
2022-09-22T23:48:57.811Z,98095.16
2022-09-22T23:51:27.967Z,98080.56
2022-09-22T23:53:58.075Z,98087.34
2022-09-22T23:56:27.421Z,98086.84
2022-09-22T23:58:56.463Z,98064.56
